createdAt,value
2017-11-21T00:00:59.888Z,5.10
2017-11-21T00:03:27.351Z,6.30
2017-11-21T00:40:23.280Z,2.97
2017-11-21T00:42:50.773Z,6.22
2017-11-21T00:45:18.230Z,4.03
2017-11-21T00:47:45.725Z,3.40
2017-11-21T00:50:13.970Z,5.62
2017-11-21T00:52:41.423Z,4.90
2017-11-21T00:55:09.001Z,3.10
2017-11-21T00:57:36.466Z,3.47
2017-11-21T01:00:03.950Z,3.78
2017-11-21T01:02:32.232Z,3.25
2017-11-21T01:04:59.699Z,2.92
2017-11-21T01:07:27.214Z,2.83
2017-11-21T01:09:54.668Z,4.62
2017-11-21T01:12:22.147Z,3.53
2017-11-21T01:14:50.372Z,2.70
2017-11-21T01:17:17.869Z,2.90
2017-11-21T01:19:45.335Z,2.72
2017-11-21T01:22:12.813Z,3.37
2017-11-21T01:24:40.320Z,2.60
2017-11-21T01:27:07.818Z,4.43
2017-11-21T01:29:36.032Z,3.00
2017-11-21T01:32:03.529Z,4.15
2017-11-21T01:34:31.011Z,3.50
2017-11-21T01:36:58.464Z,1.95
2017-11-21T01:39:26.721Z,2.50
2017-11-21T01:41:54.181Z,2.40
2017-11-21T01:44:21.705Z,2.35
2017-11-21T01:46:49.180Z,2.28
2017-11-21T01:49:16.650Z,1.90
2017-11-21T01:51:44.153Z,3.95
2017-11-21T01:54:11.620Z,2.22
2017-11-21T01:56:39.101Z,2.55
2017-11-21T01:59:06.565Z,2.90
2017-11-21T02:01:34.022Z,2.53
2017-11-21T02:04:01.501Z,3.33
2017-11-21T02:06:28.963Z,1.80
2017-11-21T02:08:56.459Z,2.08
2017-11-21T02:11:23.923Z,1.55
2017-11-21T02:13:51.408Z,1.95
2017-11-21T02:16:18.872Z,2.37
2017-11-21T02:18:46.364Z,1.60
2017-11-21T02:21:13.828Z,2.58
2017-11-21T02:23:41.285Z,3.75
2017-11-21T02:26:08.792Z,2.40
2017-11-21T02:28:36.253Z,2.10
2017-11-21T02:31:03.713Z,1.48
2017-11-21T02:33:31.201Z,2.17
2017-11-21T02:35:58.665Z,1.92
2017-11-21T02:38:26.151Z,3.37
2017-11-21T02:40:54.380Z,2.50
2017-11-21T02:43:21.853Z,2.08
2017-11-21T02:45:49.364Z,1.87
2017-11-21T02:48:16.854Z,3.05
2017-11-21T02:50:44.349Z,4.30
2017-11-21T02:53:11.873Z,1.20
2017-11-21T02:55:39.328Z,3.03
2017-11-21T02:58:06.784Z,2.22
2017-11-21T03:00:34.279Z,2.17
2017-11-21T03:03:01.740Z,1.80
2017-11-21T03:05:29.971Z,1.80
2017-11-21T03:07:57.458Z,3.42
2017-11-21T03:10:24.960Z,3.47
2017-11-21T03:12:52.433Z,1.85
2017-11-21T03:15:19.930Z,2.58
2017-11-21T03:17:47.381Z,2.15
2017-11-21T03:20:26.817Z,1.77
2017-11-21T03:23:06.140Z,1.55
2017-11-21T03:25:45.696Z,1.80
2017-11-21T03:28:13.164Z,2.12
2017-11-21T03:30:40.657Z,5.45
2017-11-21T03:33:08.881Z,3.20
2017-11-21T03:35:36.372Z,4.07
2017-11-21T03:38:03.833Z,2.10
2017-11-21T03:40:32.073Z,2.37
2017-11-21T03:42:59.567Z,2.22
2017-11-21T03:45:27.809Z,2.17
2017-11-21T03:47:55.312Z,1.90
2017-11-21T03:50:23.553Z,3.85
2017-11-21T03:52:51.023Z,2.40
2017-11-21T03:55:18.511Z,2.15
2017-11-21T03:57:46.736Z,3.65
2017-11-21T04:00:14.256Z,1.65
2017-11-21T04:02:42.473Z,1.70
2017-11-21T04:05:09.973Z,2.30
2017-11-21T04:07:38.192Z,5.03
2017-11-21T04:10:05.664Z,2.08
2017-11-21T04:12:33.151Z,2.78
2017-11-21T04:15:00.608Z,6.20
2017-11-21T04:17:28.069Z,1.60
2017-11-21T04:19:55.593Z,2.30
2017-11-21T04:22:23.060Z,2.50
2017-11-21T04:24:50.549Z,2.40
2017-11-21T04:27:17.995Z,2.37
2017-11-21T04:29:45.498Z,2.35
2017-11-21T04:32:12.976Z,2.78
2017-11-21T04:34:40.448Z,6.37
2017-11-21T04:37:07.968Z,2.15
2017-11-21T04:39:36.202Z,3.58
2017-11-21T04:42:03.696Z,2.67
2017-11-21T04:44:31.222Z,2.67
2017-11-21T04:46:58.701Z,2.12
2017-11-21T04:49:26.956Z,3.67
2017-11-21T04:51:54.416Z,2.10
2017-11-21T04:54:21.910Z,1.80
2017-11-21T04:56:50.149Z,2.92
2017-11-21T04:59:17.659Z,2.83
2017-11-21T05:01:45.125Z,2.37
2017-11-21T05:04:12.612Z,1.62
2017-11-21T05:06:40.088Z,2.45
2017-11-21T05:09:07.574Z,1.62
2017-11-21T05:11:35.826Z,4.55
2017-11-21T05:14:03.292Z,2.42
2017-11-21T05:16:30.808Z,2.35
2017-11-21T05:18:58.268Z,2.33
2017-11-21T05:21:25.761Z,3.65
2017-11-21T05:23:53.223Z,1.70
2017-11-21T05:26:20.687Z,1.67
2017-11-21T05:28:48.945Z,2.70
2017-11-21T05:31:16.453Z,3.90
2017-11-21T05:33:43.941Z,2.65
2017-11-21T05:36:11.408Z,2.05
2017-11-21T05:38:38.896Z,1.75
2017-11-21T05:41:07.120Z,2.08
2017-11-21T05:43:34.621Z,1.95
2017-11-21T05:46:02.100Z,3.45
2017-11-21T05:48:30.325Z,3.20
2017-11-21T05:50:57.810Z,2.67
2017-11-21T05:53:25.275Z,4.82
2017-11-21T05:55:52.782Z,1.70
2017-11-21T05:58:20.279Z,2.42
2017-11-21T06:00:47.744Z,2.15
2017-11-21T06:03:15.272Z,3.15
2017-11-21T06:05:42.738Z,1.80
2017-11-21T06:08:10.208Z,1.85
2017-11-21T06:10:37.690Z,2.85
2017-11-21T06:13:05.144Z,5.78
2017-11-21T06:15:32.633Z,2.03
2017-11-21T06:18:00.116Z,3.92
2017-11-21T06:20:27.595Z,2.67
2017-11-21T06:22:55.066Z,2.17
2017-11-21T06:25:22.571Z,3.17
2017-11-21T06:27:50.028Z,1.80
2017-11-21T06:30:17.516Z,2.00
2017-11-21T06:32:45.025Z,5.90
2017-11-21T06:35:13.251Z,2.55
2017-11-21T06:37:40.738Z,2.05
2017-11-21T06:40:08.202Z,3.30
2017-11-21T06:42:35.692Z,4.18
2017-11-21T06:45:03.161Z,2.53
2017-11-21T06:47:30.639Z,2.70
2017-11-21T06:49:58.117Z,5.05
2017-11-21T06:52:25.578Z,1.95
2017-11-21T06:54:53.066Z,2.58
2017-11-21T06:57:21.337Z,3.00
2017-11-21T06:59:48.825Z,3.40
2017-11-21T07:02:16.320Z,3.17
2017-11-21T07:04:43.781Z,2.92
2017-11-21T07:07:11.289Z,4.65
2017-11-21T07:09:39.546Z,4.00
2017-11-21T07:12:07.001Z,3.10
2017-11-21T07:14:34.489Z,7.00
2017-11-21T07:17:02.010Z,4.60
2017-11-21T07:19:29.508Z,4.30
2017-11-21T07:21:56.967Z,2.70
2017-11-21T07:24:24.423Z,5.70
2017-11-21T07:26:51.932Z,3.20
2017-11-21T07:29:19.433Z,11.12
2017-11-21T07:31:47.679Z,2.47
2017-11-21T07:34:15.190Z,2.58
2017-11-21T07:36:42.649Z,3.20
2017-11-21T07:39:10.131Z,2.90
2017-11-21T07:41:37.640Z,2.95
2017-11-21T07:44:05.883Z,3.92
2017-11-21T07:46:33.382Z,2.37
2017-11-21T07:49:00.880Z,6.95
2017-11-21T07:51:28.333Z,2.85
2017-11-21T07:53:55.808Z,3.95
2017-11-21T07:56:23.301Z,3.58
2017-11-21T07:58:51.526Z,9.82
2017-11-21T08:01:18.992Z,4.80
2017-11-21T08:03:46.488Z,3.92
2017-11-21T08:06:14.008Z,4.45
2017-11-21T08:08:41.498Z,6.45
2017-11-21T08:11:09.008Z,3.78
2017-11-21T08:13:36.547Z,2.95
2017-11-21T08:16:04.810Z,3.17
2017-11-21T08:18:33.045Z,4.55
2017-11-21T08:21:00.540Z,4.43
2017-11-21T08:23:28.784Z,4.30
2017-11-21T08:25:56.241Z,3.78
2017-11-21T08:28:23.727Z,3.30
2017-11-21T08:30:52.010Z,4.10
2017-11-21T08:33:20.259Z,6.12
2017-11-21T08:35:47.752Z,5.57
2017-11-21T08:38:15.999Z,3.65
2017-11-21T08:40:43.489Z,3.28
2017-11-21T08:43:11.762Z,6.55
2017-11-21T08:45:39.976Z,6.30
2017-11-21T08:48:07.443Z,5.45
2017-11-21T08:50:34.934Z,3.78
2017-11-21T08:53:02.398Z,2.97
2017-11-21T08:55:29.852Z,3.85
2017-11-21T08:57:57.340Z,2.42
2017-11-21T09:00:24.848Z,3.47
2017-11-21T09:02:52.347Z,3.05
2017-11-21T09:05:20.609Z,2.67
2017-11-21T09:07:48.079Z,2.80
2017-11-21T09:10:16.314Z,2.60
2017-11-21T09:12:43.804Z,3.72
2017-11-21T09:15:12.057Z,3.67
2017-11-21T09:17:40.504Z,2.10
2017-11-21T09:20:07.975Z,3.03
2017-11-21T09:22:35.469Z,5.30
2017-11-21T09:25:02.971Z,1.67
2017-11-21T09:27:30.499Z,6.60
2017-11-21T09:29:58.811Z,3.65
2017-11-21T09:32:26.298Z,1.73
2017-11-21T09:34:53.815Z,3.72
2017-11-21T09:37:21.263Z,7.62
2017-11-21T09:39:49.562Z,3.67
2017-11-21T09:42:17.025Z,3.80
2017-11-21T09:44:44.527Z,3.42
2017-11-21T09:47:12.024Z,6.10
2017-11-21T09:49:40.251Z,3.97
2017-11-21T09:52:07.730Z,4.90
2017-11-21T09:54:35.204Z,2.25
2017-11-21T09:57:03.510Z,2.87
2017-11-21T09:59:30.966Z,3.20
2017-11-21T10:01:58.453Z,1.37
2017-11-21T10:04:25.936Z,1.23
2017-11-21T10:06:53.422Z,1.40
2017-11-21T10:09:21.683Z,2.50
2017-11-21T10:11:49.912Z,1.83
2017-11-21T10:14:17.403Z,1.50
2017-11-21T10:16:44.928Z,1.85
2017-11-21T10:19:12.420Z,1.23
2017-11-21T10:21:39.921Z,1.48
2017-11-21T10:24:07.399Z,1.48
2017-11-21T10:26:34.923Z,1.62
2017-11-21T10:29:03.149Z,1.92
2017-11-21T10:31:30.612Z,1.60
2017-11-21T10:33:58.114Z,1.67
2017-11-21T10:36:26.368Z,1.90
2017-11-21T10:38:53.870Z,3.28
2017-11-21T10:41:21.338Z,3.97
2017-11-21T10:43:48.865Z,3.08
2017-11-21T10:46:17.101Z,2.10
2017-11-21T10:48:44.565Z,1.70
2017-11-21T10:51:12.069Z,1.50
2017-11-21T10:53:40.339Z,2.15
2017-11-21T10:56:08.582Z,1.70
2017-11-21T10:58:36.056Z,1.50
2017-11-21T11:01:03.535Z,4.22
2017-11-21T11:03:31.752Z,1.75
2017-11-21T11:05:59.258Z,7.43
2017-11-21T11:08:26.731Z,2.67
2017-11-21T11:10:54.992Z,4.50
2017-11-21T11:13:23.253Z,1.98
2017-11-21T11:15:50.743Z,2.85
2017-11-21T11:18:18.223Z,1.33
2017-11-21T11:20:45.723Z,1.40
2017-11-21T11:23:13.207Z,2.28
2017-11-21T11:25:41.428Z,2.28
2017-11-21T11:28:08.923Z,1.60
2017-11-21T11:30:36.380Z,2.12
2017-11-21T11:33:03.911Z,2.53
2017-11-21T11:35:31.414Z,1.90
2017-11-21T11:37:59.014Z,2.25
2017-11-21T11:40:26.489Z,3.35
2017-11-21T11:42:53.963Z,3.42
2017-11-21T11:45:21.442Z,5.28
2017-11-21T11:47:48.949Z,1.70
2017-11-21T11:50:16.448Z,5.37
2017-11-21T11:52:43.916Z,3.10
2017-11-21T11:55:11.417Z,2.30
2017-11-21T11:57:38.920Z,1.90
2017-11-21T12:00:06.420Z,3.42
2017-11-21T12:02:34.680Z,2.28
2017-11-21T12:05:02.931Z,1.98
2017-11-21T12:07:30.439Z,3.70
2017-11-21T12:09:57.943Z,3.50
2017-11-21T12:12:25.472Z,2.00
2017-11-21T12:14:53.005Z,3.72
2017-11-21T12:17:21.237Z,2.30
2017-11-21T12:19:48.742Z,3.20
2017-11-21T12:22:16.249Z,2.10
2017-11-21T12:24:43.760Z,3.95
2017-11-21T12:27:11.256Z,2.20
2017-11-21T12:29:38.740Z,2.35
2017-11-21T12:32:06.240Z,2.80
2017-11-21T12:34:34.485Z,4.28
2017-11-21T12:37:01.953Z,2.55
2017-11-21T12:39:29.448Z,2.65
2017-11-21T12:41:56.933Z,8.00
2017-11-21T12:44:24.448Z,3.15
2017-11-21T12:46:51.946Z,4.00
2017-11-21T12:49:19.399Z,3.33
2017-11-21T12:51:46.897Z,2.35
2017-11-21T12:54:14.376Z,5.18
2017-11-21T12:56:42.656Z,3.90
2017-11-21T12:59:10.901Z,2.87
2017-11-21T13:01:38.417Z,4.60
2017-11-21T13:04:06.029Z,4.32
2017-11-21T13:06:33.505Z,3.62
2017-11-21T13:09:01.793Z,3.30
2017-11-21T13:11:30.032Z,3.10
2017-11-21T13:13:57.575Z,5.37
2017-11-21T13:16:25.078Z,5.35
2017-11-21T13:18:53.349Z,2.60
2017-11-21T13:21:21.628Z,3.15
2017-11-21T13:23:49.871Z,3.42
2017-11-21T13:26:17.371Z,3.83
2017-11-21T13:28:45.611Z,5.57
2017-11-21T13:31:13.117Z,4.87
2017-11-21T13:33:40.580Z,7.32
2017-11-21T13:36:08.093Z,6.07
2017-11-21T13:38:35.569Z,4.57
2017-11-21T13:41:03.801Z,4.65
2017-11-21T13:43:31.297Z,4.55
2017-11-21T13:45:59.568Z,6.47
2017-11-21T13:48:27.068Z,6.43
2017-11-21T13:50:54.548Z,5.43
2017-11-21T13:53:22.053Z,3.65
2017-11-21T13:55:49.518Z,2.95
2017-11-21T13:58:17.758Z,4.43
2017-11-21T14:00:45.269Z,3.58
2017-11-21T14:03:12.734Z,4.00
2017-11-21T14:05:40.308Z,3.67
2017-11-21T14:08:07.784Z,5.20
2017-11-21T14:10:35.299Z,3.95
2017-11-21T14:13:03.528Z,6.90
2017-11-21T14:15:31.051Z,6.20
2017-11-21T14:17:58.541Z,5.45
2017-11-21T14:20:26.021Z,5.00
2017-11-21T14:22:53.580Z,5.45
2017-11-21T14:25:21.066Z,6.18
2017-11-21T14:27:49.334Z,7.13
2017-11-21T14:30:17.597Z,5.22
2017-11-21T14:32:45.110Z,6.68
2017-11-21T14:35:13.690Z,7.03
2017-11-21T14:37:41.173Z,6.95
2017-11-21T14:40:08.668Z,9.63
2017-11-21T14:42:36.929Z,8.25
2017-11-21T14:45:04.428Z,6.07
2017-11-21T14:47:31.912Z,7.82
2017-11-21T14:49:59.436Z,10.50
2017-11-21T14:52:27.704Z,8.07
2017-11-21T14:54:55.985Z,10.98
2017-11-21T14:57:24.249Z,18.12
2017-11-21T14:59:51.735Z,7.53
2017-11-21T15:02:19.244Z,7.22
2017-11-21T15:04:46.739Z,8.02
2017-11-21T15:07:14.980Z,10.85
2017-11-21T15:09:42.471Z,7.85
2017-11-21T15:12:10.720Z,4.65
2017-11-21T15:14:38.234Z,5.32
2017-11-21T15:17:05.700Z,4.00
2017-11-21T15:19:33.217Z,8.20
2017-11-21T15:22:01.472Z,2.97
2017-11-21T15:24:28.984Z,4.87
2017-11-21T15:26:56.452Z,2.95
2017-11-21T15:29:23.967Z,7.30
2017-11-21T15:31:52.214Z,6.82
2017-11-21T15:34:19.694Z,7.85
2017-11-21T15:36:47.201Z,11.45
2017-11-21T15:39:14.678Z,7.05
2017-11-21T15:41:42.227Z,12.15
2017-11-21T15:44:09.694Z,5.65
2017-11-21T15:46:37.172Z,10.27
2017-11-21T15:49:04.673Z,8.90
2017-11-21T15:51:32.929Z,14.85
2017-11-21T15:54:00.449Z,11.48
2017-11-21T15:56:27.935Z,23.62
2017-11-21T15:58:55.433Z,16.50
2017-11-21T16:01:22.920Z,12.57
2017-11-21T16:03:50.469Z,16.37
2017-11-21T16:06:17.940Z,13.77
2017-11-21T16:08:45.508Z,8.30
2017-11-21T16:11:12.997Z,64.05
2017-11-21T16:13:40.483Z,47.28
2017-11-21T16:16:08.022Z,35.00
2017-11-21T16:18:35.536Z,26.90
2017-11-21T16:21:03.041Z,22.77
2017-11-21T16:23:31.304Z,16.15
2017-11-21T16:25:58.801Z,17.58
2017-11-21T16:28:26.370Z,14.77
2017-11-21T16:30:53.835Z,4.40
2017-11-21T16:33:21.362Z,8.75
2017-11-21T16:35:49.604Z,4.70
2017-11-21T16:38:17.101Z,7.28
2017-11-21T16:40:45.389Z,12.05
2017-11-21T16:43:12.872Z,5.53
2017-11-21T16:45:40.373Z,14.07
2017-11-21T16:48:07.848Z,27.10
2017-11-21T16:50:36.131Z,18.35
2017-11-21T16:53:04.428Z,13.00
2017-11-21T16:55:31.897Z,15.05
2017-11-21T16:57:59.433Z,5.55
2017-11-21T17:00:27.681Z,6.20
2017-11-21T17:02:55.184Z,9.27
2017-11-21T17:05:22.675Z,5.75
2017-11-21T17:07:50.179Z,10.18
2017-11-21T17:10:18.466Z,6.10
2017-11-21T17:12:45.954Z,8.73
2017-11-21T17:15:13.441Z,5.53
2017-11-21T17:17:40.937Z,8.45
2017-11-21T17:20:09.218Z,7.10
2017-11-21T17:22:38.291Z,6.87
2017-11-21T17:25:06.579Z,10.40
2017-11-21T17:27:34.827Z,14.73
2017-11-21T17:30:02.336Z,11.60
2017-11-21T17:32:29.827Z,14.23
2017-11-21T17:34:57.364Z,16.15
2017-11-21T17:37:24.902Z,14.45
2017-11-21T17:39:53.157Z,11.25
2017-11-21T17:42:20.714Z,9.15
2017-11-21T17:44:48.237Z,15.00
2017-11-21T17:47:15.763Z,19.90
2017-11-21T17:49:43.236Z,14.27
2017-11-21T17:52:10.701Z,11.50
2017-11-21T17:54:38.210Z,10.45
2017-11-21T17:57:05.702Z,11.82
2017-11-21T17:59:33.247Z,15.52
2017-11-21T18:02:01.533Z,14.48
2017-11-21T18:04:29.832Z,39.65
2017-11-21T18:06:57.344Z,24.08
2017-11-21T18:09:24.826Z,27.65
2017-11-21T18:11:53.148Z,37.05
2017-11-21T18:14:20.631Z,27.37
2017-11-21T18:16:48.152Z,10.82
2017-11-21T18:19:15.612Z,8.43
2017-11-21T18:21:43.137Z,8.90
2017-11-21T18:24:11.859Z,13.48
2017-11-21T18:26:39.334Z,11.82
2017-11-21T18:29:06.872Z,12.98
2017-11-21T18:31:34.376Z,11.80
2017-11-21T18:34:01.880Z,13.88
2017-11-21T18:36:29.371Z,12.80
2017-11-21T18:38:56.833Z,15.15
2017-11-21T18:41:24.373Z,11.98
2017-11-21T18:43:51.889Z,10.60
2017-11-21T18:46:20.170Z,15.60
2017-11-21T18:48:48.433Z,15.45
2017-11-21T18:51:16.760Z,16.37
2017-11-21T18:53:44.234Z,13.57
2017-11-21T18:56:11.805Z,15.10
2017-11-21T18:58:39.304Z,14.90
2017-11-21T19:01:07.916Z,19.15
2017-11-21T19:03:35.428Z,13.55
2017-11-21T19:06:03.806Z,12.75
2017-11-21T19:08:31.287Z,15.15
2017-11-21T19:10:59.565Z,17.85
2017-11-21T19:13:27.809Z,17.08
2017-11-21T19:15:55.329Z,16.05
2017-11-21T19:18:22.796Z,17.65
2017-11-21T19:20:50.341Z,21.35
2017-11-21T19:23:17.809Z,24.08
2017-11-21T19:25:45.278Z,30.02
2017-11-21T19:28:12.811Z,24.33
2017-11-21T19:30:40.285Z,44.22
2017-11-21T19:33:07.808Z,54.08
2017-11-21T19:35:36.061Z,36.35
2017-11-21T19:38:03.565Z,47.90
2017-11-21T19:40:31.077Z,43.75
2017-11-21T19:42:58.552Z,43.87
2017-11-21T19:45:26.893Z,45.65
2017-11-21T19:47:54.393Z,47.80
2017-11-21T19:50:22.625Z,44.08
2017-11-21T19:52:50.161Z,45.38
2017-11-21T19:55:17.628Z,40.05
2017-11-21T19:57:45.113Z,28.85
2017-11-21T20:00:12.624Z,30.65
2017-11-21T20:02:41.473Z,29.55
2017-11-21T20:05:08.993Z,23.85
2017-11-21T20:07:36.454Z,26.95
2017-11-21T20:10:04.011Z,24.00
2017-11-21T20:12:31.518Z,20.80
2017-11-21T20:14:59.022Z,16.35
2017-11-21T20:17:26.507Z,12.02
2017-11-21T20:19:54.007Z,13.55
2017-11-21T20:22:22.252Z,17.37
2017-11-21T20:24:49.723Z,10.60
2017-11-21T20:27:17.244Z,18.05
2017-11-21T20:29:44.714Z,14.43
2017-11-21T20:32:12.213Z,8.55
2017-11-21T20:34:40.497Z,15.15
2017-11-21T20:37:08.733Z,11.27
2017-11-21T20:39:36.384Z,13.20
2017-11-21T20:42:03.941Z,17.67
2017-11-21T20:44:31.608Z,16.10
2017-11-21T20:46:59.154Z,19.15
2017-11-21T20:49:26.635Z,23.45
2017-11-21T20:51:54.131Z,22.42
2017-11-21T20:54:22.407Z,20.55
2017-11-21T20:56:50.687Z,16.08
2017-11-21T20:59:19.008Z,20.33
2017-11-21T21:01:46.547Z,16.20
2017-11-21T21:04:14.125Z,15.02
2017-11-21T21:06:41.637Z,18.40
2017-11-21T21:09:09.203Z,10.77
2017-11-21T21:11:37.507Z,10.35
2017-11-21T21:14:05.080Z,12.20
2017-11-21T21:16:32.571Z,11.18
2017-11-21T21:19:00.125Z,11.12
2017-11-21T21:21:27.611Z,11.32
2017-11-21T21:23:55.156Z,11.32
2017-11-21T21:26:22.687Z,16.12
2017-11-21T21:28:50.259Z,15.57
2017-11-21T21:31:17.739Z,22.33
2017-11-21T21:33:45.260Z,18.48
2017-11-21T21:36:12.770Z,33.90
2017-11-21T21:38:41.050Z,25.05
2017-11-21T21:41:09.296Z,28.00
2017-11-21T21:43:36.781Z,36.25
2017-11-21T21:46:04.282Z,38.60
2017-11-21T21:48:31.752Z,36.60
2017-11-21T21:50:59.271Z,96.97
2017-11-21T21:53:27.544Z,90.45
2017-11-21T21:55:55.787Z,144.07
2017-11-21T21:58:23.297Z,94.50
2017-11-21T22:00:50.769Z,85.35
2017-11-21T22:03:18.308Z,29.58
2017-11-21T22:05:45.822Z,36.45
2017-11-21T22:08:13.309Z,36.45
2017-11-21T22:10:41.549Z,32.42
2017-11-21T22:13:09.064Z,38.47
2017-11-21T22:15:36.549Z,48.28
2017-11-21T22:18:04.063Z,32.15
2017-11-21T22:20:32.338Z,20.52
2017-11-21T22:23:00.579Z,19.17
2017-11-21T22:25:28.087Z,15.88
2017-11-21T22:27:56.318Z,23.65
2017-11-21T22:30:23.832Z,25.40
2017-11-21T22:32:51.320Z,25.00
2017-11-21T22:35:18.817Z,72.03
2017-11-21T22:37:49.353Z,60.72
2017-11-21T22:40:17.448Z,49.55
2017-11-21T22:42:44.952Z,47.30
2017-11-21T22:45:12.416Z,47.13
2017-11-21T22:47:42.960Z,46.47
2017-11-21T22:50:10.658Z,38.28
2017-11-21T22:52:38.903Z,43.70
2017-11-21T22:55:06.425Z,43.70
2017-11-21T22:57:34.031Z,39.38
2017-11-21T23:00:02.331Z,33.65
2017-11-21T23:02:30.597Z,33.13
2017-11-21T23:04:58.855Z,27.85
2017-11-21T23:07:26.370Z,36.25
2017-11-21T23:09:53.872Z,28.08
2017-11-21T23:12:21.416Z,35.47
2017-11-21T23:14:48.880Z,29.35
2017-11-21T23:17:16.371Z,44.63
2017-11-21T23:19:44.624Z,35.72
2017-11-21T23:22:12.110Z,35.60
2017-11-21T23:24:40.373Z,30.20
2017-11-21T23:27:08.625Z,44.13
2017-11-21T23:29:36.117Z,41.85
2017-11-21T23:32:04.376Z,33.10
2017-11-21T23:34:31.899Z,31.08
2017-11-21T23:36:59.366Z,33.03
2017-11-21T23:39:26.859Z,48.67
2017-11-21T23:41:55.177Z,25.55
2017-11-21T23:44:22.665Z,28.23
2017-11-21T23:46:50.128Z,23.85
2017-11-21T23:49:17.601Z,26.92
2017-11-21T23:51:45.103Z,38.25
2017-11-21T23:54:12.590Z,26.80
2017-11-21T23:56:40.081Z,21.05
2017-11-21T23:59:07.570Z,26.10
